createdAt,value
2019-05-26T01:39:06.508Z,4.70
2019-05-26T01:41:33.727Z,4.60
2019-05-26T01:44:00.625Z,4.60
2019-05-26T01:46:27.444Z,4.70
2019-05-26T01:48:54.237Z,4.80
2019-05-26T01:51:21.191Z,4.90
2019-05-26T01:53:48.343Z,4.80
2019-05-26T01:56:15.413Z,4.70
2019-05-26T01:58:42.212Z,4.70
2019-05-26T02:01:09.019Z,4.50
2019-05-26T02:03:35.822Z,4.40
2019-05-26T02:06:02.877Z,4.40
2019-05-26T02:08:38.696Z,4.40
2019-05-26T02:10:58.479Z,4.40
2019-05-26T02:13:25.524Z,4.50
2019-05-26T02:15:52.559Z,4.50
2019-05-26T02:18:19.714Z,4.50
2019-05-26T02:20:59.714Z,4.50
2019-05-26T02:23:26.609Z,4.50
2019-05-26T02:25:53.398Z,4.50
2019-05-26T02:28:20.512Z,4.60
2019-05-26T02:30:47.864Z,4.70
2019-05-26T02:33:14.898Z,4.90
2019-05-26T02:35:41.692Z,5.00
2019-05-26T02:38:08.755Z,4.90
2019-05-26T02:40:35.694Z,4.80
2019-05-26T02:43:02.880Z,4.70
2019-05-26T02:45:29.766Z,4.80
2019-05-26T02:47:57.106Z,4.90
2019-05-26T02:50:24.342Z,5.00
2019-05-26T02:52:51.198Z,5.10
2019-05-26T02:55:18.757Z,5.10
2019-05-26T02:57:45.625Z,5.10
2019-05-26T03:00:13.475Z,5.10
2019-05-26T03:02:40.683Z,5.10
2019-05-26T03:05:08.406Z,5.10
2019-05-26T03:07:38.719Z,5.10
2019-05-26T03:10:06.197Z,5.00
2019-05-26T03:12:33.825Z,5.10
2019-05-26T03:15:02.387Z,5.30
2019-05-26T03:17:33.142Z,5.20
2019-05-26T03:20:02.130Z,5.20
2019-05-26T03:22:31.211Z,5.10
2019-05-26T03:24:59.877Z,5.10
2019-05-26T03:27:26.953Z,5.20
2019-05-26T03:29:53.829Z,5.20
2019-05-26T03:32:20.833Z,5.30
2019-05-26T03:34:48.702Z,5.40
2019-05-26T03:37:15.619Z,5.50
2019-05-26T03:39:45.955Z,5.60
2019-05-26T03:42:11.411Z,5.70
2019-05-26T03:44:38.625Z,5.80
2019-05-26T03:47:05.662Z,5.90
2019-05-26T03:49:32.646Z,6.00
2019-05-26T03:51:59.548Z,6.10
2019-05-26T03:54:26.683Z,6.10
2019-05-26T03:56:53.685Z,6.30
2019-05-26T03:59:20.643Z,6.40
2019-05-26T04:01:47.632Z,6.50
2019-05-26T04:04:14.987Z,6.60
2019-05-26T04:06:42.743Z,6.70
2019-05-26T04:09:09.795Z,6.80
2019-05-26T04:11:36.659Z,6.80
2019-05-26T04:14:03.936Z,6.80
2019-05-26T04:16:31.020Z,6.90
